createdAt,value
2024-03-12T00:01:45.103Z,12.38
2024-03-12T00:04:12.780Z,12.38
2024-03-12T00:06:43.726Z,12.38
2024-03-12T00:09:11.315Z,12.37
2024-03-12T00:11:38.814Z,12.38
2024-03-12T00:14:06.286Z,12.35
2024-03-12T00:16:35.487Z,12.29
2024-03-12T00:19:04.220Z,12.29
2024-03-12T00:21:31.944Z,12.27
2024-03-12T00:24:00.419Z,12.25
2024-03-12T00:26:29.734Z,12.20
2024-03-12T00:28:57.061Z,12.16
2024-03-12T00:31:25.982Z,12.14
2024-03-12T00:33:53.619Z,12.13
2024-03-12T00:36:20.948Z,12.11
2024-03-12T00:38:48.354Z,12.07
2024-03-12T00:41:15.789Z,12.04
2024-03-12T00:43:43.933Z,12.00
2024-03-12T00:46:12.210Z,11.95
2024-03-12T00:48:39.557Z,11.94
2024-03-12T00:51:06.963Z,11.94
2024-03-12T00:53:34.298Z,11.97
2024-03-12T00:56:02.833Z,11.96
2024-03-12T00:58:30.303Z,11.93
2024-03-12T01:00:59.344Z,11.93
2024-03-12T01:03:27.689Z,11.92
2024-03-12T01:05:55.373Z,11.91
2024-03-12T01:08:23.283Z,11.92
2024-03-12T01:10:50.596Z,11.93
2024-03-12T01:13:18.018Z,11.92
2024-03-12T01:15:47.164Z,11.92
2024-03-12T01:18:14.597Z,11.92
2024-03-12T01:20:41.865Z,11.86
2024-03-12T01:23:10.161Z,11.81
2024-03-12T01:25:38.527Z,11.84
2024-03-12T01:28:08.310Z,11.79
2024-03-12T01:30:38.136Z,11.72
2024-03-12T01:33:07.671Z,11.70
2024-03-12T01:35:40.824Z,11.71
2024-03-12T01:38:11.904Z,11.67
2024-03-12T01:40:40.704Z,11.67
2024-03-12T01:43:08.961Z,11.66
2024-03-12T01:45:37.962Z,11.66
2024-03-12T01:48:09.535Z,11.69
2024-03-12T01:50:41.129Z,11.73
2024-03-12T01:53:09.920Z,11.70
2024-03-12T01:55:45.945Z,11.77
2024-03-12T01:58:19.864Z,11.74
2024-03-12T02:00:48.293Z,11.74
2024-03-12T02:03:20.348Z,11.72
2024-03-12T02:05:49.550Z,11.73
2024-03-12T02:08:18.184Z,11.74
2024-03-12T02:10:47.399Z,11.70
2024-03-12T02:13:14.988Z,11.66
2024-03-12T02:15:43.272Z,11.64
2024-03-12T02:18:10.999Z,11.64
2024-03-12T02:20:39.676Z,11.59
2024-03-12T02:23:07.324Z,11.59
2024-03-12T02:25:34.665Z,11.60
2024-03-12T02:28:04.418Z,11.58
2024-03-12T02:30:32.391Z,11.58
2024-03-12T02:32:59.806Z,11.60
2024-03-12T02:35:28.534Z,11.58
2024-03-12T02:37:56.465Z,11.56
2024-03-12T02:40:25.445Z,11.54
2024-03-12T02:42:53.035Z,11.55
2024-03-12T02:45:22.505Z,11.54
2024-03-12T02:47:50.101Z,11.56
2024-03-12T02:50:17.852Z,11.57
2024-03-12T02:52:47.035Z,11.60
2024-03-12T02:55:15.013Z,11.59
2024-03-12T02:57:42.968Z,11.58
2024-03-12T03:00:14.711Z,11.61
2024-03-12T03:02:45.976Z,11.61
2024-03-12T03:05:14.720Z,11.59
2024-03-12T03:07:42.654Z,11.56
2024-03-12T03:10:12.345Z,11.52
2024-03-12T03:12:41.142Z,11.46
2024-03-12T03:15:13.692Z,11.49
2024-03-12T03:17:45.129Z,11.46
2024-03-12T03:20:13.896Z,11.40
2024-03-12T03:22:41.361Z,11.37
2024-03-12T03:25:10.578Z,11.34
2024-03-12T03:27:37.898Z,11.28
2024-03-12T03:30:08.406Z,11.25
2024-03-12T03:32:36.867Z,11.24
2024-03-12T03:35:08.306Z,11.19
2024-03-12T03:37:41.927Z,11.15
2024-03-12T03:40:12.707Z,11.15
2024-03-12T03:42:40.787Z,11.12
2024-03-12T03:45:08.389Z,11.08
2024-03-12T03:47:36.274Z,11.03
2024-03-12T03:50:08.766Z,11.07
2024-03-12T03:52:36.528Z,11.06
2024-03-12T03:55:05.320Z,11.04
2024-03-12T03:57:33.152Z,11.02
2024-03-12T04:00:00.873Z,11.00
2024-03-12T04:02:28.518Z,10.97
2024-03-12T04:04:56.050Z,10.97
2024-03-12T04:07:26.670Z,10.97
2024-03-12T04:09:56.112Z,10.97
2024-03-12T04:12:24.065Z,10.94
2024-03-12T04:14:51.780Z,10.95
2024-03-12T04:17:21.010Z,10.96
2024-03-12T04:19:49.872Z,10.96
2024-03-12T04:22:20.689Z,10.99
2024-03-12T04:24:48.257Z,11.01
2024-03-12T04:27:16.436Z,11.01
2024-03-12T04:29:44.086Z,11.00
2024-03-12T04:32:11.595Z,11.00
2024-03-12T04:34:39.073Z,11.04
2024-03-12T04:37:06.613Z,11.05
2024-03-12T04:39:34.173Z,11.09
2024-03-12T04:42:10.412Z,11.17
2024-03-12T04:44:37.845Z,11.25
2024-03-12T04:47:05.466Z,11.31
2024-03-12T04:49:32.871Z,11.34
2024-03-12T04:52:00.425Z,11.35
2024-03-12T04:54:28.497Z,11.39
2024-03-12T04:56:58.314Z,11.45
2024-03-12T04:59:25.671Z,11.47
2024-03-12T05:01:53.875Z,11.50
2024-03-12T05:04:26.317Z,11.53
2024-03-12T05:06:53.758Z,11.57
2024-03-12T05:09:21.179Z,11.65
2024-03-12T05:11:49.439Z,11.70
2024-03-12T05:14:18.264Z,11.74
2024-03-12T05:16:45.921Z,11.85
2024-03-12T05:19:13.562Z,11.93
2024-03-12T05:21:41.132Z,12.12
2024-03-12T05:24:08.717Z,12.37
2024-03-12T05:26:45.279Z,12.58
2024-03-12T05:29:13.518Z,12.60
2024-03-12T05:31:40.924Z,12.65
2024-03-12T05:34:19.269Z,12.98
2024-03-12T05:36:50.082Z,13.47
2024-03-12T05:39:22.301Z,13.76
2024-03-12T05:42:12.826Z,13.55
2024-03-12T05:44:58.790Z,13.08
2024-03-12T05:47:45.755Z,12.73
2024-03-12T05:50:18.386Z,12.42
2024-03-12T05:52:49.748Z,12.19
2024-03-12T05:55:17.362Z,12.01
2024-03-12T05:57:48.339Z,11.90
2024-03-12T06:00:16.900Z,11.86
2024-03-12T06:02:44.873Z,11.77
2024-03-12T06:05:15.028Z,11.70
2024-03-12T06:07:43.489Z,11.64
2024-03-12T06:10:11.213Z,11.58
2024-03-12T06:12:39.711Z,11.54
2024-03-12T06:15:07.882Z,11.58
2024-03-12T06:17:36.141Z,11.60
2024-03-12T06:20:09.281Z,11.97
2024-03-12T06:22:38.499Z,12.77
2024-03-12T06:25:07.126Z,13.41
2024-03-12T06:27:35.168Z,13.37
2024-03-12T06:30:02.483Z,13.23
2024-03-12T06:32:33.062Z,13.06
2024-03-12T06:35:00.581Z,13.69
2024-03-12T06:37:31.123Z,14.52
2024-03-12T06:40:00.265Z,15.57
2024-03-12T06:42:31.217Z,16.41
2024-03-12T06:45:01.991Z,17.11
2024-03-12T06:47:30.423Z,17.34
2024-03-12T06:50:00.217Z,17.67
2024-03-12T06:52:28.203Z,17.84
2024-03-12T06:54:55.730Z,17.82
2024-03-12T06:57:23.965Z,17.90
2024-03-12T06:59:51.628Z,18.49
2024-03-12T07:02:19.408Z,18.34
2024-03-12T07:04:50.170Z,18.77
2024-03-12T07:07:21.337Z,18.71
2024-03-12T07:09:49.780Z,18.61
2024-03-12T07:12:17.946Z,18.43
2024-03-12T07:14:47.216Z,18.52
2024-03-12T07:17:15.870Z,18.50
2024-03-12T07:19:44.432Z,18.28
2024-03-12T07:22:12.703Z,18.23
2024-03-12T07:24:43.063Z,18.45
2024-03-12T07:27:11.850Z,18.62
2024-03-12T07:29:39.164Z,18.51
2024-03-12T07:32:09.402Z,18.47
2024-03-12T07:34:38.475Z,18.44
2024-03-12T07:37:06.480Z,18.41
2024-03-12T07:39:36.060Z,18.66
2024-03-12T07:42:09.821Z,18.57
2024-03-12T07:44:38.305Z,18.17
2024-03-12T07:47:05.975Z,17.99
2024-03-12T07:49:38.373Z,18.29
2024-03-12T07:52:10.793Z,18.23
2024-03-12T07:54:42.157Z,18.23
2024-03-12T07:57:10.102Z,18.10
2024-03-12T07:59:37.948Z,18.07
2024-03-12T08:02:13.063Z,17.74
2024-03-12T08:04:46.059Z,17.86
2024-03-12T08:07:14.909Z,17.50
2024-03-12T08:09:45.788Z,17.16
2024-03-12T08:12:17.628Z,17.01
2024-03-12T08:14:46.072Z,16.65
2024-03-12T08:17:13.961Z,16.48
2024-03-12T08:19:44.775Z,16.16
2024-03-12T08:22:12.517Z,16.25
2024-03-12T08:24:40.636Z,16.12
2024-03-12T08:27:08.472Z,16.20
2024-03-12T08:29:35.966Z,16.20
2024-03-12T08:32:05.148Z,16.36
2024-03-12T08:34:32.524Z,16.57
2024-03-12T08:37:00.183Z,16.78
2024-03-12T08:39:29.829Z,16.54
2024-03-12T08:41:57.518Z,16.58
2024-03-12T08:44:25.262Z,16.72
2024-03-12T08:46:52.990Z,16.70
2024-03-12T08:49:20.380Z,16.87
2024-03-12T08:51:47.888Z,16.93
2024-03-12T08:54:15.614Z,16.78
2024-03-12T08:56:44.526Z,16.92
2024-03-12T09:02:05.928Z,17.48
2024-03-12T09:04:33.916Z,17.51
2024-03-12T09:07:02.008Z,17.57
2024-03-12T09:09:29.423Z,17.70
2024-03-12T09:11:58.323Z,18.07
2024-03-12T09:14:28.278Z,18.07
2024-03-12T09:16:55.644Z,18.16
2024-03-12T09:19:23.535Z,17.91
2024-03-12T09:21:50.832Z,18.05
2024-03-12T09:24:20.421Z,18.14
2024-03-12T09:26:47.782Z,18.15
2024-03-12T09:29:14.992Z,18.42
2024-03-12T09:31:43.657Z,18.69
2024-03-12T09:34:12.083Z,18.70
2024-03-12T09:36:39.994Z,18.82
2024-03-12T09:39:12.545Z,19.03
2024-03-12T09:41:53.707Z,19.07
2024-03-12T09:44:23.081Z,18.43
2024-03-12T09:46:50.680Z,18.07
2024-03-12T09:49:20.678Z,17.95
2024-03-12T09:51:48.280Z,18.22
2024-03-12T09:54:15.734Z,18.54
2024-03-12T09:56:44.465Z,18.70
2024-03-12T09:59:11.977Z,18.77
2024-03-12T10:01:42.028Z,18.38
2024-03-12T10:04:13.475Z,18.02
2024-03-12T10:06:41.210Z,17.98
2024-03-12T10:09:18.525Z,18.29
2024-03-12T10:11:48.757Z,18.21
2024-03-12T10:14:19.054Z,18.18
2024-03-12T10:16:46.722Z,18.06
2024-03-12T10:19:19.931Z,17.64
2024-03-12T10:21:47.524Z,17.52
2024-03-12T10:24:23.056Z,18.02
2024-03-12T10:26:51.154Z,18.62
2024-03-12T10:29:22.420Z,18.98
2024-03-12T10:31:49.796Z,19.04
2024-03-12T10:34:22.007Z,18.84
2024-03-12T10:36:51.674Z,19.11
2024-03-12T10:39:27.456Z,18.97
2024-03-12T10:42:00.938Z,18.94
2024-03-12T10:44:30.302Z,19.13
2024-03-12T10:47:02.316Z,19.21
2024-03-12T10:49:30.767Z,19.33
2024-03-12T10:51:59.337Z,19.64
2024-03-12T10:54:32.108Z,19.72
2024-03-12T10:57:04.667Z,19.85
2024-03-12T10:59:34.403Z,19.87
2024-03-12T11:02:05.174Z,19.92
2024-03-12T11:04:36.734Z,19.59
2024-03-12T11:07:05.340Z,19.92
2024-03-12T11:09:34.889Z,19.64
2024-03-12T11:12:05.410Z,19.75
2024-03-12T11:14:33.000Z,19.61
2024-03-12T11:17:01.814Z,19.00
2024-03-12T11:19:30.959Z,18.51
2024-03-12T11:22:11.436Z,18.01
2024-03-12T11:24:46.516Z,17.16
2024-03-12T11:27:26.785Z,16.24
2024-03-12T11:30:07.251Z,15.16
2024-03-12T11:32:35.443Z,13.98
2024-03-12T11:35:18.265Z,13.07
2024-03-12T11:37:49.123Z,12.52
2024-03-12T11:40:33.749Z,12.08
2024-03-12T11:43:01.521Z,11.89
2024-03-12T11:45:43.940Z,11.75
2024-03-12T11:48:12.350Z,11.73
2024-03-12T11:50:41.429Z,11.79
2024-03-12T11:53:16.054Z,11.84
2024-03-12T11:56:17.261Z,11.90
2024-03-12T11:58:49.918Z,12.07
2024-03-12T12:01:20.632Z,12.29
2024-03-12T12:03:51.848Z,12.47
2024-03-12T12:06:20.948Z,12.74
2024-03-12T12:08:57.282Z,12.96
2024-03-12T12:11:30.040Z,13.07
2024-03-12T12:14:01.302Z,13.18
2024-03-12T12:16:30.406Z,13.25
2024-03-12T12:19:09.445Z,13.40
2024-03-12T12:21:37.949Z,13.51
2024-03-12T12:24:08.145Z,13.66
2024-03-12T12:26:37.768Z,13.77
2024-03-12T12:29:09.052Z,13.78
2024-03-12T12:31:38.031Z,13.96
2024-03-12T12:34:07.953Z,14.21
2024-03-12T12:36:41.814Z,14.29
2024-03-12T12:39:12.181Z,14.51
2024-03-12T12:41:45.577Z,14.53
2024-03-12T12:44:18.652Z,14.51
2024-03-12T12:46:49.670Z,14.57
2024-03-12T12:49:18.800Z,14.59
2024-03-12T12:51:47.852Z,14.72
2024-03-12T12:54:20.289Z,14.99
2024-03-12T12:56:48.276Z,15.10
2024-03-12T12:59:18.317Z,15.19
2024-03-12T13:01:49.815Z,15.29
2024-03-12T13:04:29.792Z,15.54
2024-03-12T13:07:02.695Z,15.66
2024-03-12T13:09:33.868Z,15.92
2024-03-12T13:12:05.349Z,16.15
2024-03-12T13:14:35.230Z,16.06
2024-03-12T13:17:05.752Z,16.21
2024-03-12T13:19:34.453Z,16.29
2024-03-12T13:22:10.569Z,16.31
2024-03-12T13:24:45.826Z,16.21
2024-03-12T13:27:16.874Z,16.18
2024-03-12T13:29:47.494Z,16.12
2024-03-12T13:32:16.184Z,16.35
2024-03-12T13:34:44.448Z,16.56
2024-03-12T13:37:14.060Z,16.42
2024-03-12T13:39:43.035Z,16.71
2024-03-12T13:42:11.971Z,16.83
2024-03-12T13:44:40.728Z,16.88
2024-03-12T13:47:09.702Z,16.86
2024-03-12T13:49:38.491Z,16.96
2024-03-12T13:52:06.376Z,16.96
2024-03-12T13:54:34.268Z,16.93
2024-03-12T13:57:01.954Z,16.85
2024-03-12T13:59:29.350Z,16.77
2024-03-12T14:01:58.095Z,16.57
2024-03-12T14:04:28.512Z,16.56
2024-03-12T14:06:57.415Z,16.72
2024-03-12T14:09:26.520Z,16.77
2024-03-12T14:11:54.008Z,16.61
2024-03-12T14:14:23.089Z,16.69
2024-03-12T14:16:53.047Z,16.61
2024-03-12T14:19:20.439Z,16.53
2024-03-12T14:21:48.204Z,16.26
2024-03-12T14:24:16.819Z,16.16
2024-03-12T14:26:44.660Z,16.23
2024-03-12T14:29:12.418Z,16.21
2024-03-12T14:31:42.989Z,16.04
2024-03-12T14:34:11.245Z,15.83
2024-03-12T14:36:39.197Z,15.91
2024-03-12T14:39:09.230Z,16.17
2024-03-12T14:41:37.438Z,16.36
2024-03-12T14:44:09.445Z,16.24
2024-03-12T14:46:42.418Z,16.05
2024-03-12T14:49:10.005Z,15.95
2024-03-12T14:51:37.353Z,15.89
2024-03-12T14:54:06.215Z,15.85
2024-03-12T14:56:34.990Z,15.75
2024-03-12T14:59:05.102Z,15.78
2024-03-12T15:01:32.966Z,15.86
2024-03-12T15:04:01.604Z,15.84
2024-03-12T15:06:28.920Z,15.75
2024-03-12T15:08:57.185Z,15.79
2024-03-12T15:11:24.714Z,15.90
2024-03-12T15:13:56.064Z,15.95
2024-03-12T15:16:23.510Z,16.13
2024-03-12T15:18:51.258Z,16.20
2024-03-12T15:21:19.281Z,16.25
2024-03-12T15:23:49.041Z,16.39
2024-03-12T15:26:16.354Z,16.48
2024-03-12T15:28:44.909Z,16.50
2024-03-12T15:31:13.427Z,16.49
2024-03-12T15:33:41.252Z,16.54
2024-03-12T15:36:09.346Z,16.58
2024-03-12T15:38:38.048Z,16.55
2024-03-12T15:41:09.368Z,16.54
2024-03-12T15:43:39.255Z,16.41
2024-03-12T15:46:14.423Z,16.33
2024-03-12T15:48:48.580Z,16.23
2024-03-12T15:51:21.446Z,16.18
2024-03-12T15:53:49.744Z,16.11
2024-03-12T15:56:17.569Z,16.01
2024-03-12T15:58:45.679Z,15.89
2024-03-12T16:01:14.722Z,15.90
2024-03-12T16:03:43.183Z,15.86
2024-03-12T16:06:10.687Z,15.84
2024-03-12T16:08:38.466Z,15.82
2024-03-12T16:11:05.831Z,15.82
2024-03-12T16:13:33.375Z,15.85
2024-03-12T16:16:01.034Z,15.80
2024-03-12T16:18:28.314Z,15.72
2024-03-12T16:20:56.725Z,15.67
2024-03-12T16:23:24.155Z,15.62
2024-03-12T16:25:51.349Z,15.59
2024-03-12T16:28:19.300Z,15.54
2024-03-12T16:30:46.950Z,15.52
2024-03-12T16:33:14.556Z,15.46
2024-03-12T16:35:41.820Z,15.44
2024-03-12T16:38:09.076Z,15.36
2024-03-12T16:40:37.030Z,15.35
2024-03-12T16:43:05.880Z,15.32
2024-03-12T16:45:33.155Z,15.29
2024-03-12T16:48:02.688Z,15.21
2024-03-12T16:50:30.056Z,15.18
2024-03-12T16:52:57.345Z,15.14
2024-03-12T16:55:25.002Z,15.09
2024-03-12T16:57:52.656Z,15.06
2024-03-12T17:00:20.313Z,15.03
2024-03-12T17:02:48.132Z,15.00
2024-03-12T17:05:26.147Z,15.00
2024-03-12T17:07:58.275Z,14.96
2024-03-12T17:10:27.147Z,14.95
2024-03-12T17:12:55.405Z,14.92
2024-03-12T17:15:24.849Z,14.93
2024-03-12T17:17:52.877Z,14.87
2024-03-12T17:20:20.291Z,14.86
2024-03-12T17:22:48.612Z,14.87
2024-03-12T17:25:18.589Z,14.80
2024-03-12T17:27:48.801Z,14.73
2024-03-12T17:30:16.556Z,14.70
2024-03-12T17:32:47.355Z,14.65
2024-03-12T17:35:16.272Z,14.63
2024-03-12T17:37:45.087Z,14.58
2024-03-12T17:40:16.124Z,14.56
2024-03-12T17:42:45.554Z,14.54
2024-03-12T17:45:14.063Z,14.49
2024-03-12T17:47:48.743Z,14.46
2024-03-12T17:50:24.232Z,14.40
2024-03-12T17:52:59.116Z,14.36
2024-03-12T17:55:29.599Z,14.31
2024-03-12T17:57:59.729Z,14.23
2024-03-12T18:00:28.434Z,14.17
2024-03-12T18:02:58.028Z,14.15
2024-03-12T18:05:25.989Z,14.13
2024-03-12T18:07:53.650Z,14.15
2024-03-12T18:10:24.146Z,14.14
2024-03-12T18:12:51.848Z,14.09
2024-03-12T18:15:21.584Z,14.00
2024-03-12T18:17:49.173Z,13.91
2024-03-12T18:20:31.401Z,13.90
2024-03-12T18:22:59.764Z,13.88
2024-03-12T18:25:27.139Z,13.87
2024-03-12T18:27:58.151Z,13.88
2024-03-12T18:30:26.807Z,13.83
2024-03-12T18:32:55.777Z,13.80
2024-03-12T18:35:23.456Z,13.82
2024-03-12T18:37:52.295Z,13.80
2024-03-12T18:40:20.997Z,13.81
2024-03-12T18:42:54.796Z,13.78
2024-03-12T18:45:25.599Z,13.77
2024-03-12T18:47:56.800Z,13.73
2024-03-12T18:50:29.809Z,13.70
2024-03-12T18:53:02.621Z,13.66
2024-03-12T18:55:32.683Z,13.62
2024-03-12T18:58:03.509Z,13.58
2024-03-12T19:00:37.342Z,13.59
2024-03-12T19:03:16.701Z,13.60
2024-03-12T19:05:50.438Z,13.58
2024-03-12T19:08:21.976Z,13.55
2024-03-12T19:10:52.946Z,13.50
2024-03-12T19:13:25.324Z,13.50
2024-03-12T19:15:55.050Z,13.53
2024-03-12T19:18:28.097Z,13.53
2024-03-12T19:20:58.006Z,13.55
2024-03-12T19:23:27.806Z,13.53
2024-03-12T19:25:59.795Z,13.49
2024-03-12T19:28:29.914Z,13.44
2024-03-12T19:33:48.396Z,13.46
2024-03-12T19:36:29.678Z,13.44
2024-03-12T19:38:58.452Z,13.42
2024-03-12T19:41:26.191Z,13.43
2024-03-12T19:43:54.735Z,13.38
2024-03-12T19:46:22.450Z,13.42
2024-03-12T19:48:49.942Z,13.41
2024-03-12T19:51:18.765Z,13.42
2024-03-12T19:53:46.491Z,13.47
2024-03-12T19:56:14.123Z,13.48
2024-03-12T19:58:41.442Z,13.48
2024-03-12T20:01:11.820Z,13.46
2024-03-12T20:03:39.354Z,13.43
2024-03-12T20:06:06.863Z,13.45
2024-03-12T20:08:34.354Z,13.50
2024-03-12T20:11:01.775Z,13.46
2024-03-12T20:13:44.648Z,13.52
2024-03-12T20:16:15.879Z,13.52
2024-03-12T20:18:44.642Z,13.49
2024-03-12T20:21:12.488Z,13.46
2024-03-12T20:23:40.837Z,13.43
2024-03-12T20:26:08.183Z,13.40
2024-03-12T20:28:35.903Z,13.33
2024-03-12T20:31:04.161Z,13.21
2024-03-12T20:33:32.584Z,13.11
2024-03-12T20:36:02.688Z,13.05
2024-03-12T20:38:30.257Z,12.95
2024-03-12T20:40:57.613Z,12.85
2024-03-12T20:43:25.066Z,12.75
2024-03-12T20:45:52.545Z,12.62
2024-03-12T20:48:19.956Z,12.51
2024-03-12T20:50:47.450Z,12.54
2024-03-12T20:53:15.577Z,12.53
2024-03-12T20:55:43.240Z,12.44
2024-03-12T20:58:10.741Z,12.39
2024-03-12T21:00:39.404Z,12.31
2024-03-12T21:03:10.823Z,12.22
2024-03-12T21:05:39.295Z,12.15
2024-03-12T21:08:08.508Z,12.11
2024-03-12T21:10:36.051Z,12.12
2024-03-12T21:13:03.466Z,12.12
2024-03-12T21:15:31.029Z,12.12
2024-03-12T21:17:58.500Z,12.15
2024-03-12T21:20:29.341Z,12.13
2024-03-12T21:22:56.826Z,12.09
2024-03-12T21:25:24.219Z,12.06
2024-03-12T21:27:54.716Z,12.06
2024-03-12T21:30:25.266Z,12.10
2024-03-12T21:32:54.746Z,12.11
2024-03-12T21:35:25.185Z,12.12
2024-03-12T21:37:55.837Z,12.13
2024-03-12T21:40:24.241Z,12.18
2024-03-12T21:42:51.874Z,12.18
2024-03-12T21:45:20.595Z,12.19
2024-03-12T21:47:49.158Z,12.23
2024-03-12T21:50:17.664Z,12.24
2024-03-12T21:52:46.590Z,12.27
2024-03-12T21:55:14.742Z,12.25
2024-03-12T21:57:44.940Z,12.27
2024-03-12T22:00:20.604Z,12.26
2024-03-12T22:02:49.840Z,12.24
2024-03-12T22:05:17.963Z,12.25
2024-03-12T22:07:45.874Z,12.24
2024-03-12T22:10:13.874Z,12.25
2024-03-12T22:12:42.276Z,12.25
2024-03-12T22:15:13.261Z,12.22
2024-03-12T22:17:44.250Z,12.18
2024-03-12T22:20:20.135Z,12.17
2024-03-12T22:22:50.853Z,12.15
2024-03-12T22:25:19.952Z,12.12
2024-03-12T22:27:49.662Z,12.09
2024-03-12T22:30:18.095Z,12.07
2024-03-12T22:32:46.469Z,12.05
2024-03-12T22:35:14.206Z,12.05
2024-03-12T22:37:44.920Z,12.04
2024-03-12T22:40:13.959Z,12.03
2024-03-12T22:42:42.175Z,12.02
2024-03-12T22:45:12.894Z,12.01
2024-03-12T22:47:41.091Z,12.00
2024-03-12T22:50:10.181Z,11.99
2024-03-12T22:52:38.194Z,11.98
2024-03-12T22:55:09.071Z,11.95
2024-03-12T22:57:40.033Z,11.94
2024-03-12T23:00:28.907Z,11.93
2024-03-12T23:03:01.468Z,11.89
2024-03-12T23:05:29.478Z,11.88
2024-03-12T23:07:58.568Z,11.82
2024-03-12T23:10:26.328Z,11.80
2024-03-12T23:12:58.062Z,11.78
2024-03-12T23:15:27.217Z,11.74
2024-03-12T23:17:55.681Z,11.74
2024-03-12T23:20:24.095Z,11.71
2024-03-12T23:22:52.685Z,11.72
2024-03-12T23:25:23.390Z,11.72
2024-03-12T23:27:51.257Z,11.76
2024-03-12T23:30:18.646Z,11.74
2024-03-12T23:32:46.543Z,11.74
2024-03-12T23:35:13.899Z,11.71
2024-03-12T23:37:45.005Z,11.69
2024-03-12T23:40:12.455Z,11.69
2024-03-12T23:42:39.823Z,11.66
2024-03-12T23:45:10.826Z,11.64
2024-03-12T23:47:38.508Z,11.65
2024-03-12T23:50:08.983Z,11.61
2024-03-12T23:52:36.707Z,11.65
2024-03-12T23:55:05.190Z,11.68
2024-03-12T23:57:33.020Z,11.68
